sensor_id;sensor_type;location;lat;lon;timestamp;temperature;humidity
1025;DHT22;501;48.214;11.350;2022-09-09T00:02:24;15.20;60.60
1025;DHT22;501;48.214;11.350;2022-09-09T00:05:00;15.20;61.90
1025;DHT22;501;48.214;11.350;2022-09-09T00:07:50;15.10;62.30
1025;DHT22;501;48.214;11.350;2022-09-09T00:10:40;15.10;62.30
1025;DHT22;501;48.214;11.350;2022-09-09T00:18:24;15.10;62.30
1025;DHT22;501;48.214;11.350;2022-09-09T00:21:06;15.10;62.30
1025;DHT22;501;48.214;11.350;2022-09-09T00:23:38;15.20;63.10
1025;DHT22;501;48.214;11.350;2022-09-09T00:26:39;15.10;62.90
1025;DHT22;501;48.214;11.350;2022-09-09T00:31:38;15.10;63.50
1025;DHT22;501;48.214;11.350;2022-09-09T00:34:15;15.10;63.20
1025;DHT22;501;48.214;11.350;2022-09-09T00:36:42;15.10;62.30
1025;DHT22;501;48.214;11.350;2022-09-09T00:39:48;15.10;62.20
1025;DHT22;501;48.214;11.350;2022-09-09T00:42:24;15.10;62.20
1025;DHT22;501;48.214;11.350;2022-09-09T00:45:09;15.10;62.20
1025;DHT22;501;48.214;11.350;2022-09-09T00:47:43;15.10;62.20
1025;DHT22;501;48.214;11.350;2022-09-09T00:50:32;15.00;62.80
1025;DHT22;501;48.214;11.350;2022-09-09T00:55:41;15.00;63.50
1025;DHT22;501;48.214;11.350;2022-09-09T00:58:09;15.00;64.10
1025;DHT22;501;48.214;11.350;2022-09-09T01:00:46;14.90;64.90
1025;DHT22;501;48.214;11.350;2022-09-09T01:11:26;14.90;65.60
1025;DHT22;501;48.214;11.350;2022-09-09T01:14:05;14.90;65.70
1025;DHT22;501;48.214;11.350;2022-09-09T01:16:35;14.90;65.80
1025;DHT22;501;48.214;11.350;2022-09-09T01:19:02;14.90;64.90
1025;DHT22;501;48.214;11.350;2022-09-09T01:21:52;14.90;64.70
1025;DHT22;501;48.214;11.350;2022-09-09T01:24:37;14.90;64.20
1025;DHT22;501;48.214;11.350;2022-09-09T01:27:06;14.90;64.10
1025;DHT22;501;48.214;11.350;2022-09-09T01:29:32;14.80;63.90
1025;DHT22;501;48.214;11.350;2022-09-09T01:32:00;14.90;64.20
1025;DHT22;501;48.214;11.350;2022-09-09T01:34:30;14.80;64.10
1025;DHT22;501;48.214;11.350;2022-09-09T01:37:06;14.80;64.40
1025;DHT22;501;48.214;11.350;2022-09-09T01:39:34;14.80;63.90
1025;DHT22;501;48.214;11.350;2022-09-09T01:42:03;14.80;64.00
1025;DHT22;501;48.214;11.350;2022-09-09T01:44:30;14.90;64.40
1025;DHT22;501;48.214;11.350;2022-09-09T01:46:56;14.80;64.30
1025;DHT22;501;48.214;11.350;2022-09-09T01:49:22;14.80;64.60
1025;DHT22;501;48.214;11.350;2022-09-09T01:51:51;14.80;64.90
1025;DHT22;501;48.214;11.350;2022-09-09T01:54:18;14.90;64.90
1025;DHT22;501;48.214;11.350;2022-09-09T02:02:19;14.80;64.00
1025;DHT22;501;48.214;11.350;2022-09-09T02:04:52;14.80;63.80
1025;DHT22;501;48.214;11.350;2022-09-09T02:12:44;14.80;63.40
1025;DHT22;501;48.214;11.350;2022-09-09T02:15:30;14.80;63.40
1025;DHT22;501;48.214;11.350;2022-09-09T02:17:58;14.80;63.50
1025;DHT22;501;48.214;11.350;2022-09-09T02:20:27;14.80;63.90
1025;DHT22;501;48.214;11.350;2022-09-09T02:22:56;14.80;64.50
1025;DHT22;501;48.214;11.350;2022-09-09T02:25:24;14.80;64.80
1025;DHT22;501;48.214;11.350;2022-09-09T02:27:51;14.80;64.90
1025;DHT22;501;48.214;11.350;2022-09-09T02:30:18;14.80;64.70
1025;DHT22;501;48.214;11.350;2022-09-09T02:32:45;14.80;64.70
1025;DHT22;501;48.214;11.350;2022-09-09T02:35:15;14.80;64.70
1025;DHT22;501;48.214;11.350;2022-09-09T02:37:42;14.70;64.50
1025;DHT22;501;48.214;11.350;2022-09-09T02:40:11;14.70;65.20
1025;DHT22;501;48.214;11.350;2022-09-09T02:42:40;14.70;65.70
1025;DHT22;501;48.214;11.350;2022-09-09T02:45:08;14.70;65.80
1025;DHT22;501;48.214;11.350;2022-09-09T02:47:35;14.60;65.20
1025;DHT22;501;48.214;11.350;2022-09-09T02:50:22;14.60;65.20
1025;DHT22;501;48.214;11.350;2022-09-09T02:53:06;14.60;64.80
1025;DHT22;501;48.214;11.350;2022-09-09T02:55:58;14.60;65.40
1025;DHT22;501;48.214;11.350;2022-09-09T02:58:25;14.60;66.20
1025;DHT22;501;48.214;11.350;2022-09-09T03:00:52;14.60;65.90
1025;DHT22;501;48.214;11.350;2022-09-09T03:03:19;14.60;66.10
1025;DHT22;501;48.214;11.350;2022-09-09T03:05:45;14.60;66.10
1025;DHT22;501;48.214;11.350;2022-09-09T03:08:11;14.60;66.30
1025;DHT22;501;48.214;11.350;2022-09-09T03:10:38;14.60;66.00
1025;DHT22;501;48.214;11.350;2022-09-09T03:13:04;14.60;65.70
1025;DHT22;501;48.214;11.350;2022-09-09T03:15:34;14.60;66.30
1025;DHT22;501;48.214;11.350;2022-09-09T03:18:00;14.60;66.00
1025;DHT22;501;48.214;11.350;2022-09-09T03:20:28;14.60;66.10
1025;DHT22;501;48.214;11.350;2022-09-09T03:22:54;14.60;66.60
1025;DHT22;501;48.214;11.350;2022-09-09T03:25:21;14.60;67.20
1025;DHT22;501;48.214;11.350;2022-09-09T03:27:49;14.60;67.40
1025;DHT22;501;48.214;11.350;2022-09-09T03:30:15;14.60;67.30
1025;DHT22;501;48.214;11.350;2022-09-09T03:32:41;14.60;67.80
1025;DHT22;501;48.214;11.350;2022-09-09T03:35:07;14.60;68.60
1025;DHT22;501;48.214;11.350;2022-09-09T03:37:32;14.60;68.80
1025;DHT22;501;48.214;11.350;2022-09-09T03:39:58;14.60;69.60
1025;DHT22;501;48.214;11.350;2022-09-09T03:42:25;14.70;70.40
1025;DHT22;501;48.214;11.350;2022-09-09T03:44:50;14.70;70.40
1025;DHT22;501;48.214;11.350;2022-09-09T03:47:20;14.70;71.00
1025;DHT22;501;48.214;11.350;2022-09-09T03:49:47;14.70;70.30
1025;DHT22;501;48.214;11.350;2022-09-09T03:52:14;14.70;69.60
1025;DHT22;501;48.214;11.350;2022-09-09T03:54:40;14.80;68.80
1025;DHT22;501;48.214;11.350;2022-09-09T03:57:06;14.80;69.10
1025;DHT22;501;48.214;11.350;2022-09-09T03:59:32;14.80;69.40
1025;DHT22;501;48.214;11.350;2022-09-09T04:01:57;14.80;69.80
1025;DHT22;501;48.214;11.350;2022-09-09T04:04:24;14.80;70.40
1025;DHT22;501;48.214;11.350;2022-09-09T04:06:51;14.90;70.20
1025;DHT22;501;48.214;11.350;2022-09-09T04:09:17;14.90;70.50
1025;DHT22;501;48.214;11.350;2022-09-09T04:11:42;14.90;70.20
1025;DHT22;501;48.214;11.350;2022-09-09T04:14:08;14.90;69.60
1025;DHT22;501;48.214;11.350;2022-09-09T04:16:34;14.90;69.30
1025;DHT22;501;48.214;11.350;2022-09-09T04:19:03;14.90;69.40
1025;DHT22;501;48.214;11.350;2022-09-09T04:21:30;14.90;69.40
1025;DHT22;501;48.214;11.350;2022-09-09T04:23:56;14.90;69.80
1025;DHT22;501;48.214;11.350;2022-09-09T04:26:22;14.90;69.80
1025;DHT22;501;48.214;11.350;2022-09-09T04:28:47;15.00;70.60
1025;DHT22;501;48.214;11.350;2022-09-09T04:31:17;15.00;70.70
1025;DHT22;501;48.214;11.350;2022-09-09T04:33:43;15.00;70.70
1025;DHT22;501;48.214;11.350;2022-09-09T04:36:09;15.10;71.40
1025;DHT22;501;48.214;11.350;2022-09-09T04:38:35;15.10;70.70
1025;DHT22;501;48.214;11.350;2022-09-09T04:41:01;15.10;71.50
1025;DHT22;501;48.214;11.350;2022-09-09T04:43:27;15.10;71.50
1025;DHT22;501;48.214;11.350;2022-09-09T04:45:52;15.10;71.20
1025;DHT22;501;48.214;11.350;2022-09-09T04:48:19;15.10;70.80
1025;DHT22;501;48.214;11.350;2022-09-09T04:51:05;15.10;70.70
1025;DHT22;501;48.214;11.350;2022-09-09T04:53:32;15.20;70.90
1025;DHT22;501;48.214;11.350;2022-09-09T04:58:32;15.20;70.60
1025;DHT22;501;48.214;11.350;2022-09-09T05:01:12;15.20;69.60
1025;DHT22;501;48.214;11.350;2022-09-09T05:03:38;15.30;69.80
1025;DHT22;501;48.214;11.350;2022-09-09T05:06:08;15.30;69.70
1025;DHT22;501;48.214;11.350;2022-09-09T05:08:36;15.30;68.70
1025;DHT22;501;48.214;11.350;2022-09-09T05:11:03;15.30;68.70
1025;DHT22;501;48.214;11.350;2022-09-09T05:13:29;15.30;69.40
1025;DHT22;501;48.214;11.350;2022-09-09T05:15:57;15.30;69.20
1025;DHT22;501;48.214;11.350;2022-09-09T05:18:22;15.30;69.20
1025;DHT22;501;48.214;11.350;2022-09-09T05:20:51;15.40;69.40
1025;DHT22;501;48.214;11.350;2022-09-09T05:23:17;15.30;68.70
1025;DHT22;501;48.214;11.350;2022-09-09T05:25:43;15.40;68.80
1025;DHT22;501;48.214;11.350;2022-09-09T05:28:09;15.40;69.40
1025;DHT22;501;48.214;11.350;2022-09-09T05:30:34;15.40;70.00
1025;DHT22;501;48.214;11.350;2022-09-09T05:33:00;15.40;70.20
1025;DHT22;501;48.214;11.350;2022-09-09T05:35:26;15.50;70.20
1025;DHT22;501;48.214;11.350;2022-09-09T05:37:51;15.50;71.10
1025;DHT22;501;48.214;11.350;2022-09-09T05:40:17;15.50;69.60
1025;DHT22;501;48.214;11.350;2022-09-09T05:42:43;15.60;69.00
1025;DHT22;501;48.214;11.350;2022-09-09T05:45:09;15.60;69.20
1025;DHT22;501;48.214;11.350;2022-09-09T05:47:35;15.60;68.50
1025;DHT22;501;48.214;11.350;2022-09-09T05:50:03;15.70;69.60
1025;DHT22;501;48.214;11.350;2022-09-09T05:52:28;15.70;70.40
1025;DHT22;501;48.214;11.350;2022-09-09T05:54:54;15.70;71.20
1025;DHT22;501;48.214;11.350;2022-09-09T05:57:20;15.80;70.20
1025;DHT22;501;48.214;11.350;2022-09-09T05:59:46;15.80;69.20
1025;DHT22;501;48.214;11.350;2022-09-09T06:02:12;15.80;68.30
1025;DHT22;501;48.214;11.350;2022-09-09T06:04:38;15.90;67.50
1025;DHT22;501;48.214;11.350;2022-09-09T06:07:04;15.90;67.30
1025;DHT22;501;48.214;11.350;2022-09-09T06:09:30;15.90;67.20
1025;DHT22;501;48.214;11.350;2022-09-09T06:11:56;15.90;67.40
1025;DHT22;501;48.214;11.350;2022-09-09T06:14:22;15.90;67.50
1025;DHT22;501;48.214;11.350;2022-09-09T06:16:48;15.90;67.70
1025;DHT22;501;48.214;11.350;2022-09-09T06:19:14;16.00;68.20
1025;DHT22;501;48.214;11.350;2022-09-09T06:21:39;16.00;67.90
1025;DHT22;501;48.214;11.350;2022-09-09T06:24:06;16.00;67.70
1025;DHT22;501;48.214;11.350;2022-09-09T06:26:37;16.00;67.80
1025;DHT22;501;48.214;11.350;2022-09-09T06:29:06;16.00;68.10
1025;DHT22;501;48.214;11.350;2022-09-09T06:31:34;16.10;68.60
1025;DHT22;501;48.214;11.350;2022-09-09T06:34:00;16.10;68.80
1025;DHT22;501;48.214;11.350;2022-09-09T06:36:27;16.10;69.10
1025;DHT22;501;48.214;11.350;2022-09-09T06:38:53;16.10;68.60
1025;DHT22;501;48.214;11.350;2022-09-09T06:41:20;16.20;68.80
1025;DHT22;501;48.214;11.350;2022-09-09T06:43:46;16.20;69.70
1025;DHT22;501;48.214;11.350;2022-09-09T06:46:17;16.20;69.60
1025;DHT22;501;48.214;11.350;2022-09-09T06:48:44;16.20;71.70
1025;DHT22;501;48.214;11.350;2022-09-09T06:53:38;16.30;71.90
1025;DHT22;501;48.214;11.350;2022-09-09T06:58:36;16.30;71.80
1025;DHT22;501;48.214;11.350;2022-09-09T07:01:06;16.20;72.00
1025;DHT22;501;48.214;11.350;2022-09-09T07:03:33;16.20;73.30
1025;DHT22;501;48.214;11.350;2022-09-09T07:05:59;16.20;75.40
1025;DHT22;501;48.214;11.350;2022-09-09T07:08:25;16.20;78.70
1025;DHT22;501;48.214;11.350;2022-09-09T07:10:52;16.20;81.10
1025;DHT22;501;48.214;11.350;2022-09-09T07:13:24;16.30;82.90
1025;DHT22;501;48.214;11.350;2022-09-09T07:15:51;16.30;84.90
1025;DHT22;501;48.214;11.350;2022-09-09T07:18:17;16.40;86.30
1025;DHT22;501;48.214;11.350;2022-09-09T07:20:52;16.50;88.50
1025;DHT22;501;48.214;11.350;2022-09-09T07:23:18;16.60;90.40
1025;DHT22;501;48.214;11.350;2022-09-09T07:25:47;16.70;90.10
1025;DHT22;501;48.214;11.350;2022-09-09T07:28:13;16.70;88.10
1025;DHT22;501;48.214;11.350;2022-09-09T07:30:39;16.80;85.90
1025;DHT22;501;48.214;11.350;2022-09-09T07:33:06;16.90;82.30
1025;DHT22;501;48.214;11.350;2022-09-09T07:35:31;16.90;82.90
1025;DHT22;501;48.214;11.350;2022-09-09T07:37:57;17.00;83.90
1025;DHT22;501;48.214;11.350;2022-09-09T07:40:24;17.10;84.70
1025;DHT22;501;48.214;11.350;2022-09-09T07:42:50;17.20;81.40
1025;DHT22;501;48.214;11.350;2022-09-09T07:45:15;17.20;80.00
1025;DHT22;501;48.214;11.350;2022-09-09T07:47:41;17.40;81.20
1025;DHT22;501;48.214;11.350;2022-09-09T07:50:09;17.40;81.20
1025;DHT22;501;48.214;11.350;2022-09-09T07:52:35;17.40;79.40
1025;DHT22;501;48.214;11.350;2022-09-09T07:55:01;17.50;78.80
1025;DHT22;501;48.214;11.350;2022-09-09T07:57:31;17.50;77.20
1025;DHT22;501;48.214;11.350;2022-09-09T07:59:57;17.50;77.00
1025;DHT22;501;48.214;11.350;2022-09-09T08:02:23;17.50;75.90
1025;DHT22;501;48.214;11.350;2022-09-09T08:04:49;17.50;73.70
1025;DHT22;501;48.214;11.350;2022-09-09T08:07:15;17.50;74.20
1025;DHT22;501;48.214;11.350;2022-09-09T08:09:41;17.50;74.80
1025;DHT22;501;48.214;11.350;2022-09-09T08:12:07;17.40;75.10
1025;DHT22;501;48.214;11.350;2022-09-09T08:14:33;17.40;74.60
1025;DHT22;501;48.214;11.350;2022-09-09T08:16:59;17.50;75.90
1025;DHT22;501;48.214;11.350;2022-09-09T08:19:25;17.50;77.10
1025;DHT22;501;48.214;11.350;2022-09-09T08:21:50;17.50;76.70
1025;DHT22;501;48.214;11.350;2022-09-09T08:24:16;17.50;77.10
1025;DHT22;501;48.214;11.350;2022-09-09T08:26:46;17.60;79.10
1025;DHT22;501;48.214;11.350;2022-09-09T08:29:14;17.70;77.20
1025;DHT22;501;48.214;11.350;2022-09-09T08:31:46;17.70;78.20
1025;DHT22;501;48.214;11.350;2022-09-09T08:34:12;17.80;78.50
1025;DHT22;501;48.214;11.350;2022-09-09T08:36:40;17.80;78.90
1025;DHT22;501;48.214;11.350;2022-09-09T08:39:09;17.90;80.70
1025;DHT22;501;48.214;11.350;2022-09-09T08:47:23;18.10;74.00
1025;DHT22;501;48.214;11.350;2022-09-09T08:50:21;18.20;73.70
1025;DHT22;501;48.214;11.350;2022-09-09T08:55:45;18.40;75.80
1025;DHT22;501;48.214;11.350;2022-09-09T08:58:31;18.50;75.90
1025;DHT22;501;48.214;11.350;2022-09-09T09:06:36;18.80;67.90
1025;DHT22;501;48.214;11.350;2022-09-09T09:09:43;18.80;68.70
1025;DHT22;501;48.214;11.350;2022-09-09T09:12:15;18.90;71.40
1025;DHT22;501;48.214;11.350;2022-09-09T09:14:43;18.90;67.10
1025;DHT22;501;48.214;11.350;2022-09-09T09:17:18;18.90;64.00
1025;DHT22;501;48.214;11.350;2022-09-09T09:19:46;18.90;62.00
1025;DHT22;501;48.214;11.350;2022-09-09T09:22:25;18.90;60.20
1025;DHT22;501;48.214;11.350;2022-09-09T09:25:22;18.90;61.90
1025;DHT22;501;48.214;11.350;2022-09-09T09:27:58;18.90;59.50
1025;DHT22;501;48.214;11.350;2022-09-09T09:30:40;18.80;57.90
1025;DHT22;501;48.214;11.350;2022-09-09T09:36:00;18.70;59.30
1025;DHT22;501;48.214;11.350;2022-09-09T09:38:27;18.70;62.00
1025;DHT22;501;48.214;11.350;2022-09-09T09:40:58;18.70;65.60
1025;DHT22;501;48.214;11.350;2022-09-09T09:43:27;18.80;67.50
1025;DHT22;501;48.214;11.350;2022-09-09T09:45:53;18.80;67.40
1025;DHT22;501;48.214;11.350;2022-09-09T09:48:18;18.80;64.20
1025;DHT22;501;48.214;11.350;2022-09-09T09:50:56;18.80;63.80
1025;DHT22;501;48.214;11.350;2022-09-09T09:53:32;18.80;60.40
1025;DHT22;501;48.214;11.350;2022-09-09T09:55:59;18.80;58.80
1025;DHT22;501;48.214;11.350;2022-09-09T09:58:27;18.80;57.20
1025;DHT22;501;48.214;11.350;2022-09-09T10:00:57;18.80;58.60
1025;DHT22;501;48.214;11.350;2022-09-09T10:03:28;18.80;59.00
1025;DHT22;501;48.214;11.350;2022-09-09T10:05:55;18.80;59.90
1025;DHT22;501;48.214;11.350;2022-09-09T10:08:23;18.90;60.10
1025;DHT22;501;48.214;11.350;2022-09-09T10:16:25;19.10;60.20
1025;DHT22;501;48.214;11.350;2022-09-09T10:18:54;19.20;61.30
1025;DHT22;501;48.214;11.350;2022-09-09T10:24:13;19.40;61.50
1025;DHT22;501;48.214;11.350;2022-09-09T10:38:39;19.70;51.30
1025;DHT22;501;48.214;11.350;2022-09-09T10:44:14;19.60;52.30
1025;DHT22;501;48.214;11.350;2022-09-09T10:52:28;19.70;49.90
1025;DHT22;501;48.214;11.350;2022-09-09T10:55:10;19.80;52.50
1025;DHT22;501;48.214;11.350;2022-09-09T10:57:50;19.80;48.10
1025;DHT22;501;48.214;11.350;2022-09-09T11:00:22;19.80;51.60
1025;DHT22;501;48.214;11.350;2022-09-09T11:02:52;19.90;49.20
1025;DHT22;501;48.214;11.350;2022-09-09T11:05:28;19.90;50.40
1025;DHT22;501;48.214;11.350;2022-09-09T11:08:21;20.00;46.30
1025;DHT22;501;48.214;11.350;2022-09-09T11:11:06;20.10;48.60
1025;DHT22;501;48.214;11.350;2022-09-09T11:16:47;20.20;49.50
1025;DHT22;501;48.214;11.350;2022-09-09T11:19:34;20.20;49.70
1025;DHT22;501;48.214;11.350;2022-09-09T11:24:49;20.50;46.90
1025;DHT22;501;48.214;11.350;2022-09-09T11:27:37;20.60;48.70
1025;DHT22;501;48.214;11.350;2022-09-09T11:30:17;20.70;47.90
1025;DHT22;501;48.214;11.350;2022-09-09T11:33:13;20.90;48.30
1025;DHT22;501;48.214;11.350;2022-09-09T11:35:50;21.00;49.90
1025;DHT22;501;48.214;11.350;2022-09-09T11:38:25;21.20;45.50
1025;DHT22;501;48.214;11.350;2022-09-09T11:41:02;21.30;44.10
1025;DHT22;501;48.214;11.350;2022-09-09T11:43:33;21.40;43.90
1025;DHT22;501;48.214;11.350;2022-09-09T11:46:04;21.40;42.10
1025;DHT22;501;48.214;11.350;2022-09-09T11:51:09;21.40;43.60
1025;DHT22;501;48.214;11.350;2022-09-09T11:53:48;21.40;41.40
1025;DHT22;501;48.214;11.350;2022-09-09T11:59:19;21.50;41.60
1025;DHT22;501;48.214;11.350;2022-09-09T12:01:46;21.50;40.50
1025;DHT22;501;48.214;11.350;2022-09-09T12:04:22;21.60;38.90
1025;DHT22;501;48.214;11.350;2022-09-09T12:09:32;21.70;39.00
1025;DHT22;501;48.214;11.350;2022-09-09T12:12:07;21.80;40.60
1025;DHT22;501;48.214;11.350;2022-09-09T12:17:20;21.90;37.20
1025;DHT22;501;48.214;11.350;2022-09-09T12:19:48;21.80;36.80
1025;DHT22;501;48.214;11.350;2022-09-09T12:22:35;21.80;35.20
1025;DHT22;501;48.214;11.350;2022-09-09T12:33:18;21.70;37.80
1025;DHT22;501;48.214;11.350;2022-09-09T12:35:47;21.60;37.10
1025;DHT22;501;48.214;11.350;2022-09-09T12:38:22;21.60;34.80
1025;DHT22;501;48.214;11.350;2022-09-09T12:40:58;21.60;36.50
1025;DHT22;501;48.214;11.350;2022-09-09T12:43:25;21.60;38.40
1025;DHT22;501;48.214;11.350;2022-09-09T12:46:03;21.50;38.00
1025;DHT22;501;48.214;11.350;2022-09-09T12:48:39;21.50;39.20
1025;DHT22;501;48.214;11.350;2022-09-09T12:51:24;21.40;39.00
1025;DHT22;501;48.214;11.350;2022-09-09T12:53:51;21.50;39.20
1025;DHT22;501;48.214;11.350;2022-09-09T12:56:22;21.40;39.80
1025;DHT22;501;48.214;11.350;2022-09-09T12:58:52;21.40;40.30
1025;DHT22;501;48.214;11.350;2022-09-09T13:01:24;21.40;39.50
1025;DHT22;501;48.214;11.350;2022-09-09T13:03:50;21.30;39.40
1025;DHT22;501;48.214;11.350;2022-09-09T13:06:27;21.20;39.60
1025;DHT22;501;48.214;11.350;2022-09-09T13:08:55;21.20;39.50
1025;DHT22;501;48.214;11.350;2022-09-09T13:11:26;21.10;39.00
1025;DHT22;501;48.214;11.350;2022-09-09T13:13:56;21.10;39.00
1025;DHT22;501;48.214;11.350;2022-09-09T13:16:26;21.00;38.60
1025;DHT22;501;48.214;11.350;2022-09-09T13:18:56;21.00;40.00
1025;DHT22;501;48.214;11.350;2022-09-09T13:21:34;21.10;35.10
1025;DHT22;501;48.214;11.350;2022-09-09T13:24:00;21.10;35.60
1025;DHT22;501;48.214;11.350;2022-09-09T13:26:28;21.10;35.20
1025;DHT22;501;48.214;11.350;2022-09-09T13:29:07;21.10;37.10
1025;DHT22;501;48.214;11.350;2022-09-09T13:31:36;21.20;38.10
1025;DHT22;501;48.214;11.350;2022-09-09T13:34:33;21.20;37.00
1025;DHT22;501;48.214;11.350;2022-09-09T13:37:23;21.30;38.40
1025;DHT22;501;48.214;11.350;2022-09-09T13:39:52;21.40;37.80
1025;DHT22;501;48.214;11.350;2022-09-09T13:42:29;21.50;39.60
1025;DHT22;501;48.214;11.350;2022-09-09T13:44:58;21.70;41.60
1025;DHT22;501;48.214;11.350;2022-09-09T13:47:31;22.20;39.10
1025;DHT22;501;48.214;11.350;2022-09-09T13:49:57;22.50;37.60
1025;DHT22;501;48.214;11.350;2022-09-09T13:52:23;22.70;37.00
1025;DHT22;501;48.214;11.350;2022-09-09T13:54:50;23.10;35.10
1025;DHT22;501;48.214;11.350;2022-09-09T13:57:18;23.40;35.30
1025;DHT22;501;48.214;11.350;2022-09-09T13:59:46;23.80;35.20
1025;DHT22;501;48.214;11.350;2022-09-09T14:02:11;24.00;34.40
1025;DHT22;501;48.214;11.350;2022-09-09T14:04:37;23.90;33.60
1025;DHT22;501;48.214;11.350;2022-09-09T14:07:03;23.80;33.40
1025;DHT22;501;48.214;11.350;2022-09-09T14:09:29;23.60;32.50
1025;DHT22;501;48.214;11.350;2022-09-09T14:11:54;23.40;32.10
1025;DHT22;501;48.214;11.350;2022-09-09T14:14:23;23.10;33.60
1025;DHT22;501;48.214;11.350;2022-09-09T14:16:48;22.90;32.10
1025;DHT22;501;48.214;11.350;2022-09-09T14:19:14;22.70;33.60
1025;DHT22;501;48.214;11.350;2022-09-09T14:21:39;22.50;32.50
1025;DHT22;501;48.214;11.350;2022-09-09T14:24:05;22.30;33.80
1025;DHT22;501;48.214;11.350;2022-09-09T14:26:31;22.20;34.50
1025;DHT22;501;48.214;11.350;2022-09-09T14:28:57;22.20;34.80
1025;DHT22;501;48.214;11.350;2022-09-09T14:31:24;22.10;35.40
1025;DHT22;501;48.214;11.350;2022-09-09T14:33:50;22.00;33.20
1025;DHT22;501;48.214;11.350;2022-09-09T14:36:16;22.00;35.00
1025;DHT22;501;48.214;11.350;2022-09-09T14:38:42;21.90;34.40
1025;DHT22;501;48.214;11.350;2022-09-09T14:41:18;21.80;35.70
1025;DHT22;501;48.214;11.350;2022-09-09T14:43:45;21.70;36.20
1025;DHT22;501;48.214;11.350;2022-09-09T14:46:13;21.60;36.10
1025;DHT22;501;48.214;11.350;2022-09-09T14:48:40;21.50;36.60
1025;DHT22;501;48.214;11.350;2022-09-09T14:51:12;21.40;36.90
1025;DHT22;501;48.214;11.350;2022-09-09T14:53:39;21.30;37.80
1025;DHT22;501;48.214;11.350;2022-09-09T14:56:07;21.40;37.80
1025;DHT22;501;48.214;11.350;2022-09-09T14:58:34;21.60;37.60
1025;DHT22;501;48.214;11.350;2022-09-09T15:01:04;21.70;37.00
1025;DHT22;501;48.214;11.350;2022-09-09T15:03:30;21.90;37.90
1025;DHT22;501;48.214;11.350;2022-09-09T15:05:56;21.90;36.60
1025;DHT22;501;48.214;11.350;2022-09-09T15:08:24;22.00;35.90
1025;DHT22;501;48.214;11.350;2022-09-09T15:10:50;22.20;35.10
1025;DHT22;501;48.214;11.350;2022-09-09T15:13:15;22.70;34.50
1025;DHT22;501;48.214;11.350;2022-09-09T15:15:42;23.40;33.90
1025;DHT22;501;48.214;11.350;2022-09-09T15:18:09;24.00;31.70
1025;DHT22;501;48.214;11.350;2022-09-09T15:20:34;24.50;31.30
1025;DHT22;501;48.214;11.350;2022-09-09T15:23:02;25.00;30.80
1025;DHT22;501;48.214;11.350;2022-09-09T15:25:28;25.30;29.80
1025;DHT22;501;48.214;11.350;2022-09-09T15:27:53;25.40;29.50
1025;DHT22;501;48.214;11.350;2022-09-09T15:30:19;25.30;29.40
1025;DHT22;501;48.214;11.350;2022-09-09T15:32:44;24.90;28.40
1025;DHT22;501;48.214;11.350;2022-09-09T15:35:10;24.30;29.80
1025;DHT22;501;48.214;11.350;2022-09-09T15:37:36;24.10;30.70
1025;DHT22;501;48.214;11.350;2022-09-09T15:40:01;24.00;31.30
1025;DHT22;501;48.214;11.350;2022-09-09T15:42:27;23.80;32.10
1025;DHT22;501;48.214;11.350;2022-09-09T15:44:53;23.60;33.50
1025;DHT22;501;48.214;11.350;2022-09-09T15:47:18;23.30;33.80
1025;DHT22;501;48.214;11.350;2022-09-09T15:49:44;23.00;33.90
1025;DHT22;501;48.214;11.350;2022-09-09T15:52:10;22.60;34.30
1025;DHT22;501;48.214;11.350;2022-09-09T15:54:36;22.10;35.00
1025;DHT22;501;48.214;11.350;2022-09-09T15:57:07;21.90;35.20
1025;DHT22;501;48.214;11.350;2022-09-09T15:59:34;21.60;35.80
1025;DHT22;501;48.214;11.350;2022-09-09T16:02:00;21.40;36.80
1025;DHT22;501;48.214;11.350;2022-09-09T16:04:27;21.10;37.20
1025;DHT22;501;48.214;11.350;2022-09-09T16:06:55;21.00;37.70
1025;DHT22;501;48.214;11.350;2022-09-09T16:09:21;20.90;39.10
1025;DHT22;501;48.214;11.350;2022-09-09T16:11:47;21.00;38.20
1025;DHT22;501;48.214;11.350;2022-09-09T16:14:14;21.00;38.40
1025;DHT22;501;48.214;11.350;2022-09-09T16:16:41;21.00;37.90
1025;DHT22;501;48.214;11.350;2022-09-09T16:19:09;20.90;38.00
1025;DHT22;501;48.214;11.350;2022-09-09T16:21:41;20.80;38.30
1025;DHT22;501;48.214;11.350;2022-09-09T16:24:09;20.80;38.80
1025;DHT22;501;48.214;11.350;2022-09-09T16:26:36;20.70;38.40
1025;DHT22;501;48.214;11.350;2022-09-09T16:29:03;20.60;38.90
1025;DHT22;501;48.214;11.350;2022-09-09T16:31:29;20.50;38.00
1025;DHT22;501;48.214;11.350;2022-09-09T16:33:56;20.40;38.00
1025;DHT22;501;48.214;11.350;2022-09-09T16:36:32;20.30;38.10
1025;DHT22;501;48.214;11.350;2022-09-09T16:39:01;20.30;39.00
1025;DHT22;501;48.214;11.350;2022-09-09T16:41:28;20.30;38.40
1025;DHT22;501;48.214;11.350;2022-09-09T16:44:08;20.20;38.60
1025;DHT22;501;48.214;11.350;2022-09-09T16:46:39;20.20;38.20
1025;DHT22;501;48.214;11.350;2022-09-09T16:49:10;20.10;38.90
1025;DHT22;501;48.214;11.350;2022-09-09T16:51:38;20.00;39.00
1025;DHT22;501;48.214;11.350;2022-09-09T16:54:06;20.00;39.30
1025;DHT22;501;48.214;11.350;2022-09-09T16:56:33;20.00;38.90
1025;DHT22;501;48.214;11.350;2022-09-09T16:59:07;19.90;38.40
1025;DHT22;501;48.214;11.350;2022-09-09T17:01:35;19.80;39.00
1025;DHT22;501;48.214;11.350;2022-09-09T17:04:07;19.80;39.20
1025;DHT22;501;48.214;11.350;2022-09-09T17:06:34;19.70;38.80
1025;DHT22;501;48.214;11.350;2022-09-09T17:09:02;19.70;39.40
1025;DHT22;501;48.214;11.350;2022-09-09T17:11:28;19.60;39.80
1025;DHT22;501;48.214;11.350;2022-09-09T17:13:55;19.50;39.70
1025;DHT22;501;48.214;11.350;2022-09-09T17:16:22;19.50;39.70
1025;DHT22;501;48.214;11.350;2022-09-09T17:18:50;19.40;39.90
1025;DHT22;501;48.214;11.350;2022-09-09T17:21:19;19.40;40.50
1025;DHT22;501;48.214;11.350;2022-09-09T17:23:45;19.30;40.20
1025;DHT22;501;48.214;11.350;2022-09-09T17:26:13;19.30;40.30
1025;DHT22;501;48.214;11.350;2022-09-09T17:28:40;19.30;41.00
1025;DHT22;501;48.214;11.350;2022-09-09T17:31:07;19.30;40.70
1025;DHT22;501;48.214;11.350;2022-09-09T17:33:35;19.20;40.60
1025;DHT22;501;48.214;11.350;2022-09-09T17:36:06;19.10;41.00
1025;DHT22;501;48.214;11.350;2022-09-09T17:38:33;19.10;40.90
1025;DHT22;501;48.214;11.350;2022-09-09T17:43:31;19.00;40.60
1025;DHT22;501;48.214;11.350;2022-09-09T17:46:18;18.90;40.50
1025;DHT22;501;48.214;11.350;2022-09-09T17:48:49;18.90;40.60
1025;DHT22;501;48.214;11.350;2022-09-09T17:51:18;18.80;40.20
1025;DHT22;501;48.214;11.350;2022-09-09T17:53:51;18.80;40.60
1025;DHT22;501;48.214;11.350;2022-09-09T17:56:19;18.70;40.90
1025;DHT22;501;48.214;11.350;2022-09-09T17:58:48;18.70;40.60
1025;DHT22;501;48.214;11.350;2022-09-09T18:01:17;18.60;41.20
1025;DHT22;501;48.214;11.350;2022-09-09T18:03:44;18.60;41.20
1025;DHT22;501;48.214;11.350;2022-09-09T18:06:12;18.50;41.70
1025;DHT22;501;48.214;11.350;2022-09-09T18:08:41;18.40;41.60
1025;DHT22;501;48.214;11.350;2022-09-09T18:11:07;18.40;42.50